Time;durP1;ratioP1;P1;durP2;ratioP2;P2;SDS_P1;SDS_P2;PMS_P1;PMS_P2;Temp;Humidity;BMP_temperature;BMP_pressure;BME280_temperature;BME280_humidity;BME280_pressure;Samples;Min_cycle;Max_cycle;Signal;HPM_P1;HPM_P2
2023/02/26 00:01:50;;;;;;;33.80;16.30;;;;;;;6.18;100.00;99161.97;106822;1277;22543;-69
2023/02/26 00:04:19;;;;;;;31.70;15.70;;;;;;;6.17;100.00;99162.26;106851;1277;26521;-70
2023/02/26 00:06:54;;;;;;;29.00;14.90;;;;;;;6.16;100.00;99164.88;106821;1278;26568;-69
2023/02/26 00:09:25;;;;;;;31.30;14.90;;;;;;;6.15;100.00;99161.83;106811;1277;24240;-68
2023/02/26 00:11:54;;;;;;;26.40;14.10;;;;;;;6.13;100.00;99165.21;106863;1278;23909;-70
2023/02/26 00:14:29;;;;;;;35.50;15.70;;;;;;;6.13;100.00;99174.20;106817;1277;25307;-69
2023/02/26 00:17:37;;;;;;;30.90;15.40;;;;;;;6.12;100.00;99173.45;106835;1278;25821;-68
2023/02/26 00:20:10;;;;;;;31.30;15.20;;;;;;;6.11;100.00;99159.90;106900;1278;26538;-69
2023/02/26 00:22:41;;;;;;;32.10;15.40;;;;;;;6.09;100.00;99166.73;106816;1277;25460;-70
2023/02/26 00:25:11;;;;;;;33.40;15.60;;;;;;;6.07;100.00;99176.20;106888;1277;25249;-69
2023/02/26 00:27:40;;;;;;;29.50;14.90;;;;;;;6.06;100.00;99170.99;106818;1278;26501;-71
2023/02/26 00:30:09;;;;;;;30.30;14.20;;;;;;;6.03;100.00;99177.69;106077;1277;1003668;-70
2023/02/26 00:32:40;;;;;;;26.90;14.20;;;;;;;6.01;100.00;99185.80;106867;1278;25312;-69
2023/02/26 00:35:12;;;;;;;29.00;14.90;;;;;;;5.99;100.00;99189.59;106875;1277;25434;-71
2023/02/26 00:38:04;;;;;;;32.50;15.80;;;;;;;5.98;100.00;99185.83;106670;1278;217793;-69
2023/02/26 00:40:49;;;;;;;29.20;15.00;;;;;;;5.95;100.00;99179.86;106856;1278;22525;-70
2023/02/26 00:43:21;;;;;;;31.20;15.90;;;;;;;5.91;100.00;99180.58;106814;1277;25442;-71
2023/02/26 00:45:54;;;;;;;30.80;14.60;;;;;;;5.89;100.00;99187.77;106927;1278;22530;-68
2023/02/26 00:48:53;;;;;;;36.50;16.40;;;;;;;5.86;100.00;99191.98;106822;1278;22529;-70
2023/02/26 00:51:31;;;;;;;26.90;14.10;;;;;;;5.83;100.00;99188.19;106868;1277;22522;-69
2023/02/26 00:54:08;;;;;;;26.80;13.20;;;;;;;5.82;100.00;99183.52;106751;1277;22531;-69
2023/02/26 00:56:38;;;;;;;29.30;13.60;;;;;;;5.80;100.00;99173.69;106851;1278;22538;-70
2023/02/26 00:59:07;;;;;;;29.50;14.50;;;;;;;5.77;100.00;99172.07;106770;1270;24228;-69
2023/02/26 01:01:36;;;;;;;28.10;13.80;;;;;;;5.74;100.00;99163.92;106688;1278;25426;-70
2023/02/26 01:04:08;;;;;;;28.80;14.50;;;;;;;5.71;100.00;99161.75;106827;1277;25489;-70
2023/02/26 01:06:49;;;;;;;27.90;14.10;;;;;;;5.68;100.00;99164.91;106831;1278;25482;-69
2023/02/26 01:09:32;;;;;;;27.50;14.30;;;;;;;5.64;100.00;99165.71;106853;1277;25338;-70
2023/02/26 01:12:04;;;;;;;26.40;13.90;;;;;;;5.62;100.00;99172.90;106825;1278;22482;-71
2023/02/26 01:14:33;;;;;;;25.60;12.00;;;;;;;5.60;100.00;99177.18;106652;1278;22524;-69
2023/02/26 01:17:23;;;;;;;27.60;12.90;;;;;;;5.59;100.00;99168.92;106802;1277;22564;-69
2023/02/26 01:20:01;;;;;;;29.10;14.10;;;;;;;5.58;100.00;99172.04;106904;1278;24073;-70
2023/02/26 01:22:33;;;;;;;34.20;13.40;;;;;;;5.56;100.00;99179.38;106844;1278;25478;-70
2023/02/26 01:25:04;;;;;;;30.80;13.30;;;;;;;5.56;100.00;99197.50;106813;1278;22576;-70
2023/02/26 01:27:36;;;;;;;27.70;12.90;;;;;;;5.55;100.00;99201.56;106596;1277;26494;-69
2023/02/26 01:30:06;;;;;;;26.40;13.30;;;;;;;5.54;100.00;99211.80;106413;1278;24326;-68
2023/02/26 01:32:53;;;;;;;25.70;12.90;;;;;;;5.52;100.00;99211.13;106668;1277;25358;-70
2023/02/26 01:35:30;;;;;;;28.90;13.20;;;;;;;5.50;100.00;99208.08;106741;1277;25349;-70
2023/02/26 01:38:02;;;;;;;25.00;13.20;;;;;;;5.49;100.00;99209.45;106128;1278;1002994;-70
2023/02/26 01:40:47;;;;;;;29.00;14.60;;;;;;;5.47;100.00;99211.20;106846;1278;25287;-69
2023/02/26 01:43:21;;;;;;;26.80;12.20;;;;;;;5.46;100.00;99210.12;106859;1278;25457;-69
2023/02/26 01:45:51;;;;;;;29.20;13.80;;;;;;;5.44;100.00;99220.52;106817;1278;25457;-70
2023/02/26 01:48:52;;;;;;;32.00;14.10;;;;;;;5.42;100.00;99228.16;106882;1278;25464;-69
2023/02/26 01:52:00;;;;;;;27.90;12.20;;;;;;;5.41;100.00;99217.36;106843;1278;22533;-68
2023/02/26 01:54:33;;;;;;;24.40;12.60;;;;;;;5.41;100.00;99214.92;105982;1286;26869;-69
2023/02/26 01:57:07;;;;;;;31.50;14.20;;;;;;;5.40;100.00;99221.66;106661;1278;25245;-69
2023/02/26 01:59:41;;;;;;;30.10;13.20;;;;;;;5.39;100.00;99223.98;106661;1278;22525;-70
2023/02/26 02:02:11;;;;;;;27.90;13.60;;;;;;;5.40;100.00;99234.01;106795;1274;22535;-70
2023/02/26 02:04:40;;;;;;;27.90;12.80;;;;;;;5.38;100.00;99230.20;106823;1278;22538;-73
2023/02/26 02:07:10;;;;;;;27.10;12.70;;;;;;;5.36;100.00;99226.31;106539;1278;25357;-71
2023/02/26 02:09:38;;;;;;;27.90;13.80;;;;;;;5.33;100.00;99219.42;106934;1277;22520;-72
2023/02/26 02:12:16;;;;;;;26.20;13.70;;;;;;;5.31;100.00;99219.67;106885;1278;25279;-68
2023/02/26 02:14:54;;;;;;;28.60;13.50;;;;;;;5.29;100.00;99216.52;106767;1277;25274;-69
2023/02/26 02:17:36;;;;;;;30.20;14.00;;;;;;;5.26;100.00;99218.18;106768;1278;26599;-69
2023/02/26 02:20:33;;;;;;;29.90;13.60;;;;;;;5.24;100.00;99218.60;106727;1278;25256;-70
2023/02/26 02:23:09;;;;;;;32.80;13.50;;;;;;;5.21;100.00;99213.19;106801;1278;25435;-68
2023/02/26 02:25:59;;;;;;;28.20;12.60;;;;;;;5.18;100.00;99219.73;106827;1278;25234;-69
2023/02/26 02:28:41;;;;;;;25.10;12.50;;;;;;;5.15;100.00;99226.81;106805;1277;22536;-68
2023/02/26 02:31:31;;;;;;;27.30;12.00;;;;;;;5.13;100.00;99228.16;106740;1278;22520;-69
2023/02/26 02:34:09;;;;;;;27.60;13.00;;;;;;;5.10;100.00;99243.02;106884;1278;24201;-69
2023/02/26 02:36:57;;;;;;;35.30;14.40;;;;;;;5.09;100.00;99254.43;106857;1277;22524;-69
2023/02/26 02:39:46;;;;;;;27.30;13.60;;;;;;;5.08;100.00;99270.10;106822;1278;26796;-70
2023/02/26 02:42:31;;;;;;;26.90;12.30;;;;;;;5.06;100.00;99274.33;106773;1277;22530;-68
2023/02/26 02:45:07;;;;;;;24.00;11.90;;;;;;;5.05;100.00;99288.56;106878;1277;24260;-70
2023/02/26 02:47:38;;;;;;;26.40;12.50;;;;;;;5.04;100.00;99289.83;106826;1278;25433;-70
2023/02/26 02:50:30;;;;;;;31.60;13.50;;;;;;;5.03;100.00;99297.95;106854;1278;24716;-68
2023/02/26 02:53:08;;;;;;;26.30;12.30;;;;;;;5.00;100.00;99298.23;106884;1278;25323;-70
2023/02/26 02:55:45;;;;;;;29.30;13.60;;;;;;;4.99;100.00;99308.89;106763;1278;22531;-69
2023/02/26 02:58:16;;;;;;;27.70;13.30;;;;;;;4.96;100.00;99324.11;106803;1278;25310;-69
2023/02/26 03:00:48;;;;;;;28.40;13.10;;;;;;;4.95;100.00;99326.41;106894;1278;22526;-69
2023/02/26 03:03:32;;;;;;;32.90;13.00;;;;;;;4.92;100.00;99331.68;106657;1277;26504;-68
2023/02/26 03:06:01;;;;;;;27.40;13.10;;;;;;;4.90;100.00;99329.71;106849;1277;25564;-68
2023/02/26 03:08:40;;;;;;;26.50;12.10;;;;;;;4.89;100.00;99330.35;106687;1278;25475;-70
2023/02/26 03:11:09;;;;;;;28.10;13.10;;;;;;;4.88;100.00;99327.28;106796;1277;24231;-70
2023/02/26 03:13:39;;;;;;;25.40;12.80;;;;;;;4.87;100.00;99325.23;106679;1278;25485;-69
2023/02/26 03:16:54;;;;;;;29.90;13.80;;;;;;;4.85;100.00;99322.04;106831;1278;23834;-69
2023/02/26 03:19:29;;;;;;;28.10;12.10;;;;;;;4.83;100.00;99320.27;107417;1278;24232;-69
2023/02/26 03:21:58;;;;;;;26.80;13.00;;;;;;;4.81;100.00;99325.60;106661;1278;25454;-69
2023/02/26 03:24:56;;;;;;;27.00;12.10;;;;;;;4.80;100.00;99350.04;106791;1278;25892;-68
2023/02/26 03:27:30;;;;;;;23.30;11.70;;;;;;;4.79;100.00;99345.34;106797;1278;23138;-68
2023/02/26 03:30:11;;;;;;;27.20;12.10;;;;;;;4.78;100.00;99352.58;106881;1278;22669;-69
2023/02/26 03:32:57;;;;;;;29.60;12.70;;;;;;;4.76;100.00;99359.33;106667;1278;22526;-68
2023/02/26 03:35:39;;;;;;;27.40;12.60;;;;;;;4.76;100.00;99358.84;106870;1278;25233;-71
2023/02/26 03:38:11;;;;;;;24.20;11.60;;;;;;;4.75;100.00;99354.04;106913;1278;26535;-70
2023/02/26 03:40:46;;;;;;;22.60;10.70;;;;;;;4.76;100.00;99353.79;106701;1277;26519;-68
2023/02/26 03:43:27;;;;;;;22.10;10.80;;;;;;;4.76;100.00;99357.02;106829;1278;26589;-71
2023/02/26 03:46:00;;;;;;;25.40;11.70;;;;;;;4.76;100.00;99362.38;106830;1278;26533;-70
2023/02/26 03:48:29;;;;;;;33.00;13.20;;;;;;;4.76;100.00;99377.89;106530;1278;22541;-69
2023/02/26 03:51:05;;;;;;;25.90;12.10;;;;;;;4.76;100.00;99386.12;106649;1278;26770;-69
2023/02/26 03:53:49;;;;;;;28.20;12.00;;;;;;;4.77;100.00;99392.15;106816;1278;25356;-69
2023/02/26 03:56:36;;;;;;;26.70;11.50;;;;;;;4.76;100.00;99404.84;106674;1279;22539;-69
2023/02/26 03:59:28;;;;;;;25.40;12.60;;;;;;;4.74;100.00;99415.53;106654;1278;25436;-69
2023/02/26 04:02:18;;;;;;;27.50;10.60;;;;;;;4.72;100.00;99415.63;106556;1279;25491;-70
2023/02/26 04:05:00;;;;;;;28.20;12.60;;;;;;;4.71;100.00;99429.48;106680;1278;25298;-69
2023/02/26 04:07:29;;;;;;;23.40;11.70;;;;;;;4.70;100.00;99433.65;106518;1279;24285;-70
2023/02/26 04:09:58;;;;;;;25.40;12.40;;;;;;;4.69;100.00;99438.20;106660;1279;22537;-69
2023/02/26 04:12:27;;;;;;;23.10;12.10;;;;;;;4.67;100.00;99447.11;106654;1279;25332;-68
2023/02/26 04:14:56;;;;;;;29.90;11.90;;;;;;;4.66;100.00;99438.73;106583;1279;25457;-70
2023/02/26 04:17:25;;;;;;;24.90;11.50;;;;;;;4.65;100.00;99438.98;106619;1278;26502;-69
2023/02/26 04:19:56;;;;;;;27.80;12.40;;;;;;;4.63;100.00;99458.06;106746;1279;25303;-69
2023/02/26 04:22:24;;;;;;;24.40;12.00;;;;;;;4.63;100.00;99464.00;106571;1279;25423;-73
2023/02/26 04:24:59;;;;;;;29.70;13.50;;;;;;;4.62;100.00;99482.27;106747;1278;26560;-69
2023/02/26 04:27:28;;;;;;;26.90;13.40;;;;;;;4.61;100.00;99490.71;106474;1279;25252;-70
2023/02/26 04:29:57;;;;;;;25.50;13.00;;;;;;;4.60;100.00;99487.25;106723;1279;25435;-70
2023/02/26 04:32:25;;;;;;;27.60;12.00;;;;;;;4.59;100.00;99489.58;106772;1278;25511;-68
2023/02/26 04:34:54;;;;;;;26.00;12.50;;;;;;;4.57;100.00;99509.69;106679;1278;25435;-69
2023/02/26 04:37:25;;;;;;;23.70;12.20;;;;;;;4.56;100.00;99516.72;106650;1279;25303;-70
2023/02/26 04:39:54;;;;;;;21.90;11.40;;;;;;;4.56;100.00;99524.41;106757;1278;22490;-68
2023/02/26 04:42:23;;;;;;;24.50;11.50;;;;;;;4.56;100.00;99531.58;106731;1279;25313;-68
2023/02/26 04:44:52;;;;;;;27.00;13.30;;;;;;;4.55;100.00;99535.70;106540;1279;26518;-69
2023/02/26 04:47:21;;;;;;;25.70;12.40;;;;;;;4.57;100.00;99551.86;106661;1279;25259;-69
2023/02/26 04:49:49;;;;;;;27.60;12.10;;;;;;;4.54;100.00;99562.41;106559;1279;26712;-69
2023/02/26 04:52:19;;;;;;;27.80;14.40;;;;;;;4.54;100.00;99574.09;106816;1279;25287;-69
2023/02/26 04:54:48;;;;;;;28.00;13.10;;;;;;;4.53;100.00;99591.70;106695;1278;22526;-68
2023/02/26 04:57:17;;;;;;;29.10;12.80;;;;;;;4.50;100.00;99598.66;106636;1278;26620;-68
2023/02/26 04:59:46;;;;;;;25.30;12.70;;;;;;;4.50;100.00;99599.83;106750;1279;25377;-69
2023/02/26 05:02:15;;;;;;;27.90;12.00;;;;;;;4.48;100.00;99598.34;106630;1279;22524;-69
2023/02/26 05:04:45;;;;;;;30.70;12.70;;;;;;;4.47;100.00;99601.15;106825;1279;26647;-69
2023/02/26 05:07:13;;;;;;;28.80;13.90;;;;;;;4.45;100.00;99600.39;106541;1279;22533;-70
2023/02/26 05:09:42;;;;;;;25.40;13.30;;;;;;;4.44;100.00;99598.76;106881;1278;26667;-68
2023/02/26 05:12:12;;;;;;;26.40;13.00;;;;;;;4.43;100.00;99596.73;106735;1279;25294;-71
2023/02/26 05:14:41;;;;;;;25.90;12.80;;;;;;;4.40;100.00;99597.12;106676;1278;25459;-68
2023/02/26 05:17:10;;;;;;;25.30;12.50;;;;;;;4.37;100.00;99600.05;106659;1278;22640;-69
2023/02/26 05:19:41;;;;;;;23.50;12.40;;;;;;;4.36;100.00;99595.88;106605;1279;25303;-69
2023/02/26 05:22:12;;;;;;;23.00;11.80;;;;;;;4.36;100.00;99591.23;106743;1278;26511;-70
2023/02/26 05:24:42;;;;;;;26.10;12.90;;;;;;;4.36;100.00;99593.00;106749;1279;25846;-68
2023/02/26 05:27:11;;;;;;;25.90;11.60;;;;;;;4.37;100.00;99595.98;106607;1279;25433;-69
2023/02/26 05:29:44;;;;;;;23.90;12.20;;;;;;;4.37;100.00;99599.15;106619;1279;25571;-67
2023/02/26 05:32:14;;;;;;;26.50;12.10;;;;;;;4.38;100.00;99605.32;106732;1278;23894;-69
2023/02/26 05:34:43;;;;;;;23.00;11.70;;;;;;;4.39;100.00;99607.20;106757;1278;25604;-68
2023/02/26 05:37:12;;;;;;;24.40;11.90;;;;;;;4.41;100.00;99614.54;106718;1279;25436;-70
2023/02/26 05:39:42;;;;;;;26.10;12.20;;;;;;;4.43;100.00;99622.38;106611;1279;25322;-69
2023/02/26 05:42:11;;;;;;;32.00;13.50;;;;;;;4.44;100.00;99633.19;106774;1279;25290;-67
2023/02/26 05:44:40;;;;;;;22.90;11.80;;;;;;;4.43;100.00;99638.80;106834;1278;24162;-68
2023/02/26 05:47:08;;;;;;;24.00;12.30;;;;;;;4.42;100.00;99641.40;106741;1278;22528;-69
2023/02/26 05:49:40;;;;;;;24.90;12.40;;;;;;;4.43;100.00;99649.58;106805;1278;25381;-69
2023/02/26 05:52:09;;;;;;;24.70;12.10;;;;;;;4.42;100.00;99655.35;106892;1277;25250;-72
2023/02/26 05:54:37;;;;;;;23.90;12.30;;;;;;;4.40;100.00;99660.54;106807;1278;25420;-71
2023/02/26 05:57:08;;;;;;;25.70;11.90;;;;;;;4.38;100.00;99667.94;106803;1277;25255;-68
2023/02/26 05:59:39;;;;;;;28.30;14.70;;;;;;;4.39;100.00;99677.20;106819;1277;25434;-69
2023/02/26 06:02:09;;;;;;;25.60;13.10;;;;;;;4.38;100.00;99684.43;106858;1277;24368;-68
2023/02/26 06:04:37;;;;;;;24.10;12.60;;;;;;;4.37;100.00;99691.27;106844;1278;22787;-69
2023/02/26 06:07:06;;;;;;;26.10;13.20;;;;;;;4.36;100.00;99695.33;106852;1277;25433;-68
2023/02/26 06:09:38;;;;;;;30.40;15.10;;;;;;;4.34;100.00;99698.17;106822;1278;22840;-68
2023/02/26 06:12:10;;;;;;;29.40;14.60;;;;;;;4.31;100.00;99700.00;106835;1278;25463;-68
2023/02/26 06:14:39;;;;;;;28.30;13.70;;;;;;;4.28;100.00;99699.38;106870;1277;25314;-70
2023/02/26 06:17:07;;;;;;;29.20;14.20;;;;;;;4.26;100.00;99693.36;106934;1278;25306;-69
2023/02/26 06:19:37;;;;;;;28.60;15.00;;;;;;;4.23;100.00;99689.34;106898;1278;25480;-69
2023/02/26 06:22:05;;;;;;;24.70;12.00;;;;;;;4.20;100.00;99686.55;106888;1278;25300;-68
2023/02/26 06:24:34;;;;;;;24.00;10.80;;;;;;;4.18;100.00;99684.04;106937;1277;22642;-69
2023/02/26 06:27:02;;;;;;;26.50;12.40;;;;;;;4.18;100.00;99686.78;106890;1277;22537;-69
2023/02/26 06:29:31;;;;;;;26.20;13.00;;;;;;;4.17;100.00;99684.83;106962;1277;25974;-67
2023/02/26 06:31:59;;;;;;;23.90;10.50;;;;;;;4.16;100.00;99684.93;106981;1277;22597;-71
2023/02/26 06:34:28;;;;;;;22.30;10.00;;;;;;;4.15;100.00;99678.45;106936;1277;25433;-70
2023/02/26 06:36:57;;;;;;;24.30;10.40;;;;;;;4.15;100.00;99679.73;106936;1278;22649;-72
2023/02/26 06:39:26;;;;;;;19.40;9.50;;;;;;;4.16;100.00;99683.73;106833;1278;26519;-69
2023/02/26 06:41:54;;;;;;;17.30;8.00;;;;;;;4.17;100.00;99681.52;106894;1277;25393;-69
2023/02/26 06:44:24;;;;;;;20.30;8.10;;;;;;;4.19;100.00;99688.06;106803;1278;25440;-69
2023/02/26 06:46:53;;;;;;;21.20;8.30;;;;;;;4.22;100.00;99695.70;106070;1279;1002418;-69
2023/02/26 06:49:26;;;;;;;18.20;7.50;;;;;;;4.24;100.00;99698.35;106763;1279;25466;-70
2023/02/26 06:51:55;;;;;;;18.30;7.90;;;;;;;4.26;100.00;99709.08;106708;1278;25454;-70
2023/02/26 06:54:24;;;;;;;16.90;8.20;;;;;;;4.27;100.00;99716.79;106723;1279;25328;-73
2023/02/26 06:56:56;;;;;;;16.10;7.10;;;;;;;4.28;100.00;99721.89;106747;1279;25256;-70
2023/02/26 06:59:25;;;;;;;16.30;7.40;;;;;;;4.30;100.00;99734.02;106715;1278;22539;-70
2023/02/26 07:01:54;;;;;;;22.30;8.30;;;;;;;4.32;100.00;99741.69;106764;1279;23773;-70
2023/02/26 07:04:22;;;;;;;16.80;7.60;;;;;;;4.31;100.00;99743.02;106730;1279;24212;-71
2023/02/26 07:06:51;;;;;;;13.10;6.10;;;;;;;4.30;100.00;99749.89;106806;1278;26514;-69
2023/02/26 07:09:20;;;;;;;16.30;7.40;;;;;;;4.30;100.00;99753.49;106758;1278;26608;-68
2023/02/26 07:11:50;;;;;;;14.20;7.00;;;;;;;4.30;100.00;99750.45;106672;1278;26529;-68
2023/02/26 07:14:19;;;;;;;18.80;8.30;;;;;;;4.32;100.00;99743.34;106752;1278;26688;-70
2023/02/26 07:16:49;;;;;;;18.00;7.70;;;;;;;4.32;100.00;99734.91;106742;1278;25425;-69
2023/02/26 07:19:18;;;;;;;19.70;8.30;;;;;;;4.32;100.00;99732.62;106685;1278;25439;-68
2023/02/26 07:21:47;;;;;;;17.40;8.10;;;;;;;4.31;100.00;99749.95;106798;1276;25452;-71
2023/02/26 07:24:16;;;;;;;17.60;8.00;;;;;;;4.32;100.00;99742.09;106735;1278;22546;-70
2023/02/26 07:26:45;;;;;;;17.60;7.50;;;;;;;4.32;100.00;99739.92;106816;1278;26500;-68
2023/02/26 07:29:14;;;;;;;18.10;8.70;;;;;;;4.32;100.00;99747.39;106773;1278;26514;-67
2023/02/26 07:31:42;;;;;;;16.80;7.80;;;;;;;4.33;100.00;99748.73;106704;1278;25313;-67
2023/02/26 07:34:11;;;;;;;24.50;13.30;;;;;;;4.34;100.00;99751.29;106802;1278;25454;-71
2023/02/26 07:36:41;;;;;;;22.10;11.50;;;;;;;4.35;100.00;99758.19;103798;1278;1003774;-70
2023/02/26 07:39:10;;;;;;;18.40;9.20;;;;;;;4.36;100.00;99756.50;106037;1279;1003728;-71
2023/02/26 07:41:39;;;;;;;22.70;9.90;;;;;;;4.38;100.00;99756.67;106695;1278;25258;-68
2023/02/26 07:44:11;;;;;;;25.60;11.20;;;;;;;4.41;100.00;99764.23;106662;1277;25435;-68
2023/02/26 07:46:42;;;;;;;34.00;13.20;;;;;;;4.44;100.00;99756.69;106789;1278;26481;-68
2023/02/26 07:49:11;;;;;;;36.50;16.50;;;;;;;4.47;100.00;99759.81;106877;1278;22524;-70
2023/02/26 07:51:44;;;;;;;38.90;16.20;;;;;;;4.50;100.00;99756.51;106874;1278;23788;-71
2023/02/26 07:54:13;;;;;;;36.60;15.00;;;;;;;4.55;100.00;99763.05;106864;1278;25290;-71
2023/02/26 07:56:44;;;;;;;28.30;12.10;;;;;;;4.60;100.00;99763.27;106761;1278;25451;-69
2023/02/26 07:59:14;;;;;;;29.10;11.70;;;;;;;4.63;100.00;99764.27;106844;1277;25419;-70
2023/02/26 08:01:42;;;;;;;24.10;9.80;;;;;;;4.68;100.00;99764.02;106787;1277;24222;-69
2023/02/26 08:04:12;;;;;;;21.30;10.00;;;;;;;4.71;100.00;99764.23;106891;1277;26512;-67
2023/02/26 08:06:41;;;;;;;20.90;8.80;;;;;;;4.75;100.00;99770.48;106809;1278;26498;-69
2023/02/26 08:09:13;;;;;;;20.00;9.00;;;;;;;4.80;100.00;99763.10;106681;1278;26522;-69
2023/02/26 08:11:42;;;;;;;19.10;8.80;;;;;;;4.84;100.00;99768.63;106777;1277;22556;-70
2023/02/26 08:14:11;;;;;;;19.90;7.80;;;;;;;4.89;100.00;99764.89;106749;1278;25357;-72
2023/02/26 08:16:39;;;;;;;17.90;7.80;;;;;;;4.93;100.00;99768.33;106808;1277;24040;-71
2023/02/26 08:19:08;;;;;;;17.00;8.10;;;;;;;4.96;100.00;99772.51;106844;1278;26501;-70
2023/02/26 08:21:37;;;;;;;18.80;9.00;;;;;;;4.99;100.00;99768.66;106782;1277;25445;-68
2023/02/26 08:24:06;;;;;;;19.10;8.70;;;;;;;5.01;100.00;99764.78;106075;1278;1003442;-71
2023/02/26 08:26:35;;;;;;;17.30;7.90;;;;;;;5.04;100.00;99755.13;106815;1278;23915;-68
2023/02/26 08:29:04;;;;;;;19.40;8.20;;;;;;;5.09;100.00;99743.27;106840;1278;22545;-69
2023/02/26 08:31:34;;;;;;;17.40;8.40;;;;;;;5.16;100.00;99756.84;106844;1277;24202;-68
2023/02/26 08:34:03;;;;;;;18.30;8.50;;;;;;;5.24;100.00;99752.53;106618;1280;25385;-69
2023/02/26 08:36:31;;;;;;;16.00;7.20;;;;;;;5.30;100.00;99754.64;106649;1279;25318;-69
2023/02/26 08:39:01;;;;;;;18.40;8.70;;;;;;;5.36;100.00;99766.25;106629;1279;26533;-69
2023/02/26 08:41:31;;;;;;;19.40;8.40;;;;;;;5.38;100.00;99771.08;106600;1280;26579;-70
2023/02/26 08:44:00;;;;;;;16.00;7.20;;;;;;;5.34;100.00;99769.90;106598;1280;22581;-67
2023/02/26 08:46:29;;;;;;;16.70;7.30;;;;;;;5.33;100.00;99766.41;106597;1280;22628;-69
2023/02/26 08:48:59;;;;;;;13.30;6.50;;;;;;;5.31;100.00;99765.11;106629;1279;26622;-70
2023/02/26 08:51:29;;;;;;;17.40;7.00;;;;;;;5.31;100.00;99765.61;106623;1280;25349;-71
2023/02/26 08:53:58;;;;;;;13.90;6.80;;;;;;;5.29;100.00;99763.66;106535;1280;25454;-71
2023/02/26 08:56:27;;;;;;;16.70;7.20;;;;;;;5.25;100.00;99762.29;106537;1279;25365;-71
2023/02/26 08:58:56;;;;;;;21.30;9.90;;;;;;;5.21;100.00;99763.80;106649;1279;26531;-70
2023/02/26 09:01:24;;;;;;;20.00;9.90;;;;;;;5.18;100.00;99764.82;106618;1280;26608;-72
2023/02/26 09:03:53;;;;;;;20.30;9.80;;;;;;;5.14;100.00;99768.49;106555;1279;23891;-70
2023/02/26 09:06:22;;;;;;;19.40;9.30;;;;;;;5.13;100.00;99772.49;106643;1279;24023;-68
2023/02/26 09:08:52;;;;;;;18.20;8.20;;;;;;;5.14;100.00;99775.98;106612;1280;25474;-70
2023/02/26 09:11:20;;;;;;;18.50;8.50;;;;;;;5.17;100.00;99783.78;106614;1279;22533;-68
2023/02/26 09:13:50;;;;;;;19.50;9.40;;;;;;;5.20;100.00;99790.63;106612;1279;25303;-68
2023/02/26 09:16:18;;;;;;;19.80;9.40;;;;;;;5.21;100.00;99795.41;106671;1279;22715;-69
2023/02/26 09:18:49;;;;;;;18.90;9.00;;;;;;;5.21;100.00;99797.04;106497;1279;25418;-70
2023/02/26 09:21:18;;;;;;;18.60;9.20;;;;;;;5.20;100.00;99803.30;106683;1279;24216;-69
2023/02/26 09:23:48;;;;;;;20.40;8.40;;;;;;;5.19;100.00;99804.14;106702;1280;26507;-70
2023/02/26 09:26:16;;;;;;;17.50;7.90;;;;;;;5.17;100.00;99812.58;106625;1279;23804;-69
2023/02/26 09:28:49;;;;;;;14.70;7.70;;;;;;;5.18;100.00;99816.02;106565;1279;25473;-70
2023/02/26 09:31:18;;;;;;;23.00;9.10;;;;;;;5.19;100.00;99812.55;106575;1279;24238;-71
2023/02/26 09:33:47;;;;;;;20.80;8.40;;;;;;;5.21;100.00;99810.74;106715;1279;25446;-69
2023/02/26 09:36:15;;;;;;;18.90;8.70;;;;;;;5.24;100.00;99817.13;106586;1280;22471;-71
2023/02/26 09:38:44;;;;;;;17.20;8.20;;;;;;;5.24;100.00;99822.86;106671;1279;23225;-70
2023/02/26 09:41:20;;;;;;;16.70;7.80;;;;;;;5.18;100.00;99825.30;106550;1279;22622;-72
2023/02/26 09:44:23;;;;;;;15.70;7.20;;;;;;;5.12;100.00;99828.16;106655;1280;22551;-70
2023/02/26 09:46:54;;;;;;;14.60;7.30;;;;;;;5.11;100.00;99820.58;106644;1279;25945;-69
2023/02/26 09:49:34;;;;;;;14.10;6.70;;;;;;;5.13;100.00;99823.82;106651;1279;25261;-68
2023/02/26 09:52:27;;;;;;;18.00;7.50;;;;;;;5.16;100.00;99820.02;106683;1279;23911;-69
2023/02/26 09:55:19;;;;;;;16.60;7.80;;;;;;;5.21;100.00;99831.33;106577;1279;25391;-71
2023/02/26 09:57:48;;;;;;;15.40;7.20;;;;;;;5.27;100.00;99830.08;106586;1279;26000;-72
2023/02/26 10:00:36;;;;;;;16.00;6.90;;;;;;;5.30;100.00;99833.88;106518;1279;24218;-71
2023/02/26 10:03:27;;;;;;;15.80;6.60;;;;;;;5.32;100.00;99828.48;106636;1279;25438;-69
2023/02/26 10:06:14;;;;;;;17.30;7.70;;;;;;;5.31;100.00;99828.92;106650;1279;25323;-69
2023/02/26 10:09:11;;;;;;;14.70;6.40;;;;;;;5.35;100.00;99820.70;106642;1279;24330;-71
2023/02/26 10:11:46;;;;;;;13.30;6.00;;;;;;;5.40;100.00;99816.52;106593;1279;25481;-71
2023/02/26 10:14:36;;;;;;;13.80;6.10;;;;;;;5.40;100.00;99826.88;106588;1279;22530;-69
2023/02/26 10:17:20;;;;;;;12.90;6.30;;;;;;;5.40;100.00;99832.24;106630;1279;25436;-68
2023/02/26 10:19:53;;;;;;;13.10;5.90;;;;;;;5.43;100.00;99830.23;106501;1279;22575;-69
2023/02/26 10:22:50;;;;;;;14.20;6.70;;;;;;;5.41;100.00;99833.53;106621;1279;25414;-71
2023/02/26 10:25:57;;;;;;;11.30;5.80;;;;;;;5.42;100.00;99833.16;106604;1279;25436;-72
2023/02/26 10:28:32;;;;;;;12.10;5.60;;;;;;;5.47;100.00;99838.72;106629;1279;25443;-70
2023/02/26 10:31:22;;;;;;;8.90;4.90;;;;;;;5.51;100.00;99844.11;106687;1279;26654;-68
2023/02/26 10:33:57;;;;;;;9.90;4.60;;;;;;;5.50;100.00;99845.80;106622;1279;26504;-68
2023/02/26 10:36:29;;;;;;;10.70;4.80;;;;;;;5.44;100.00;99857.83;106702;1279;24722;-69
2023/02/26 10:39:03;;;;;;;7.50;4.40;;;;;;;5.38;100.00;99875.70;106720;1279;22617;-71
2023/02/26 10:41:33;;;;;;;8.40;4.40;;;;;;;5.34;100.00;99877.89;106799;1279;22537;-71
2023/02/26 10:44:13;;;;;;;7.30;3.80;;;;;;;5.31;100.00;99889.39;106694;1279;26504;-68
2023/02/26 10:46:53;;;;;;;9.80;4.30;;;;;;;5.27;100.00;99894.02;106637;1279;24180;-68
2023/02/26 10:49:53;;;;;;;5.80;4.10;;;;;;;5.23;100.00;99890.30;106709;1279;25440;-69
2023/02/26 10:52:24;;;;;;;9.30;4.70;;;;;;;5.19;100.00;99886.52;106651;1279;26531;-71
2023/02/26 10:55:36;;;;;;;10.10;5.00;;;;;;;5.17;100.00;99900.80;106770;1279;24233;-69
2023/02/26 10:58:13;;;;;;;10.30;5.00;;;;;;;5.16;100.00;99896.86;106643;1279;25443;-69
2023/02/26 11:00:45;;;;;;;10.50;5.00;;;;;;;5.14;100.00;99902.20;106721;1280;25418;-67
2023/02/26 11:03:18;;;;;;;10.50;5.00;;;;;;;5.14;100.00;99908.40;106768;1279;25422;-69
2023/02/26 11:05:47;;;;;;;11.10;5.50;;;;;;;5.15;100.00;99911.16;106625;1280;22538;-69
2023/02/26 11:08:29;;;;;;;16.00;7.40;;;;;;;5.15;100.00;99921.41;107035;1279;26653;-72
2023/02/26 11:11:02;;;;;;;21.60;12.60;;;;;;;5.14;100.00;99932.38;106989;1279;26498;-72
2023/02/26 11:13:34;;;;;;;15.90;8.90;;;;;;;5.11;100.00;99934.38;106727;1279;26637;-70
2023/02/26 11:16:11;;;;;;;16.30;7.50;;;;;;;5.13;100.00;99937.87;106699;1279;22545;-72
2023/02/26 11:18:43;;;;;;;10.30;6.00;;;;;;;5.15;100.00;99933.01;106607;1279;22536;-70
2023/02/26 11:21:27;;;;;;;9.60;5.10;;;;;;;5.18;100.00;99944.34;106727;1279;24197;-71
2023/02/26 11:24:04;;;;;;;10.80;5.70;;;;;;;5.20;100.00;99939.88;106979;1279;23151;-70
2023/02/26 11:26:36;;;;;;;7.50;4.80;;;;;;;5.20;100.00;99939.48;107177;1279;23630;-72
2023/02/26 11:29:05;;;;;;;10.50;5.60;;;;;;;5.22;100.00;99946.10;107044;1279;22527;-70
2023/02/26 11:31:33;;;;;;;12.60;6.50;;;;;;;5.25;100.00;99955.71;106638;1279;22779;-69
2023/02/26 11:34:03;;;;;;;9.80;5.30;;;;;;;5.27;100.00;99955.52;106707;1279;24229;-69
2023/02/26 11:36:33;;;;;;;10.60;5.40;;;;;;;5.28;100.00;99952.50;106735;1279;22613;-68
2023/02/26 11:39:23;;;;;;;7.80;4.60;;;;;;;5.31;100.00;99952.77;106928;1279;22544;-70
2023/02/26 11:41:56;;;;;;;12.30;5.90;;;;;;;5.36;100.00;99943.22;106979;1279;25428;-69
2023/02/26 11:44:37;;;;;;;12.20;5.90;;;;;;;5.39;100.00;99943.36;107065;1278;22586;-68